createdAt,value
2018-07-14T00:00:27.458Z,57.28
2018-07-14T00:02:56.710Z,58.08
2018-07-14T00:05:25.946Z,58.31
2018-07-14T00:07:55.248Z,58.13
2018-07-14T00:10:23.955Z,58.47
2018-07-14T00:12:52.898Z,58.97
2018-07-14T00:15:22.180Z,58.77
2018-07-14T00:17:51.255Z,57.99
2018-07-14T00:20:20.390Z,58.24
2018-07-14T00:22:49.632Z,58.67
2018-07-14T00:25:22.822Z,58.29
2018-07-14T00:27:52.095Z,58.19
2018-07-14T00:30:21.143Z,57.68
2018-07-14T00:32:50.209Z,57.02
2018-07-14T00:35:19.466Z,57.64
2018-07-14T00:37:48.371Z,58.07
2018-07-14T00:40:17.555Z,57.59
2018-07-14T00:42:46.860Z,57.83
2018-07-14T00:45:16.000Z,57.76
2018-07-14T00:47:45.261Z,57.15
2018-07-14T00:50:14.461Z,57.42
2018-07-14T00:52:43.454Z,57.36
2018-07-14T00:55:12.391Z,57.16
2018-07-14T00:57:41.386Z,57.54
2018-07-14T01:00:10.586Z,56.95
2018-07-14T01:02:39.642Z,56.27
2018-07-14T01:05:08.819Z,56.70
2018-07-14T01:07:37.848Z,55.98
2018-07-14T01:10:06.733Z,56.53
2018-07-14T01:12:35.897Z,56.80
2018-07-14T01:15:05.147Z,55.80
2018-07-14T01:17:34.287Z,56.64
2018-07-14T01:20:03.409Z,56.73
2018-07-14T01:22:32.269Z,56.70
2018-07-14T01:25:01.227Z,56.19
2018-07-14T01:27:30.029Z,57.45
2018-07-14T01:29:59.229Z,57.06
2018-07-14T01:35:06.454Z,56.47
2018-07-14T01:37:35.486Z,56.56
2018-07-14T01:40:04.460Z,56.34
2018-07-14T01:42:33.671Z,56.56
2018-07-14T01:45:02.671Z,57.41
2018-07-14T01:47:31.762Z,57.46
2018-07-14T01:50:00.849Z,56.99
2018-07-14T01:52:30.012Z,56.72
2018-07-14T01:54:59.151Z,56.61
2018-07-14T01:57:28.344Z,57.04
2018-07-14T01:59:57.486Z,56.58
2018-07-14T02:02:26.458Z,57.03
2018-07-14T02:04:55.666Z,56.99
2018-07-14T02:07:24.938Z,57.04
2018-07-14T02:09:54.046Z,57.33
2018-07-14T02:12:23.168Z,57.05
2018-07-14T02:14:52.219Z,57.23
2018-07-14T02:17:21.349Z,56.61
2018-07-14T02:19:50.111Z,56.44
2018-07-14T02:22:19.361Z,56.25
2018-07-14T02:24:48.424Z,55.98
2018-07-14T02:27:17.587Z,55.89
2018-07-14T02:29:46.913Z,56.11
2018-07-14T02:32:16.184Z,55.06
2018-07-14T02:34:45.409Z,55.64
2018-07-14T02:37:14.231Z,55.44
2018-07-14T02:39:43.298Z,54.58
2018-07-14T02:42:12.531Z,54.66
2018-07-14T02:44:41.610Z,54.86
2018-07-14T02:47:10.690Z,55.18
2018-07-14T02:49:39.778Z,55.33
2018-07-14T02:52:08.780Z,53.95
2018-07-14T02:54:37.707Z,54.02
2018-07-14T02:57:06.650Z,53.48
2018-07-14T02:59:35.840Z,53.94
2018-07-14T03:02:05.000Z,53.48
2018-07-14T03:04:34.137Z,54.32
2018-07-14T03:07:03.279Z,54.11
2018-07-14T03:09:32.599Z,52.84
2018-07-14T03:12:01.356Z,52.84
2018-07-14T03:14:30.519Z,52.56
2018-07-14T03:16:59.564Z,52.51
2018-07-14T03:19:28.862Z,52.23
2018-07-14T03:21:58.051Z,52.95
2018-07-14T03:24:27.308Z,52.71
2018-07-14T03:26:56.083Z,52.95
2018-07-14T03:29:25.120Z,52.24
2018-07-14T03:31:54.307Z,53.13
2018-07-14T03:34:23.329Z,52.33
2018-07-14T03:36:52.498Z,51.71
2018-07-14T03:39:21.509Z,52.96
2018-07-14T03:41:50.776Z,52.36
2018-07-14T03:44:19.802Z,51.48
2018-07-14T03:46:48.657Z,52.63
2018-07-14T03:49:17.903Z,52.00
2018-07-14T03:51:47.243Z,52.40
2018-07-14T03:54:16.335Z,51.54
2018-07-14T03:56:45.417Z,51.33
2018-07-14T03:59:14.578Z,52.32
2018-07-14T04:01:43.819Z,52.66
2018-07-14T04:04:12.875Z,52.07
2018-07-14T04:06:42.103Z,51.66
2018-07-14T04:09:11.260Z,52.03
2018-07-14T04:11:40.618Z,52.18
2018-07-14T04:14:09.358Z,52.61
2018-07-14T04:16:38.434Z,52.05
2018-07-14T04:19:07.777Z,51.91
2018-07-14T04:21:36.958Z,51.90
2018-07-14T04:24:06.240Z,51.87
2018-07-14T04:26:35.545Z,53.16
2018-07-14T04:29:04.589Z,53.02
2018-07-14T04:31:33.874Z,51.83
2018-07-14T04:34:02.691Z,51.43
2018-07-14T04:36:31.906Z,51.38
2018-07-14T04:39:01.052Z,51.47
2018-07-14T04:41:30.246Z,51.04
2018-07-14T04:43:59.303Z,50.47
2018-07-14T04:46:28.426Z,50.82
2018-07-14T04:48:57.734Z,50.38
2018-07-14T04:51:26.885Z,51.04
2018-07-14T04:53:56.213Z,50.29
2018-07-14T04:56:25.111Z,51.65
2018-07-14T04:58:54.262Z,50.46
2018-07-14T05:01:23.208Z,50.09
2018-07-14T05:03:52.434Z,50.12
2018-07-14T05:06:21.707Z,51.04
2018-07-14T05:08:50.926Z,51.00
2018-07-14T05:11:19.688Z,50.63
2018-07-14T05:13:48.626Z,50.01
2018-07-14T05:16:17.788Z,50.67
2018-07-14T05:18:46.843Z,50.20
2018-07-14T05:21:15.804Z,50.81
2018-07-14T05:23:44.886Z,50.89
2018-07-14T05:26:13.937Z,50.98
2018-07-14T05:28:43.296Z,50.87
2018-07-14T05:31:12.144Z,51.82
2018-07-14T05:33:41.248Z,51.68
2018-07-14T05:36:10.271Z,50.21
2018-07-14T05:38:39.506Z,50.43
2018-07-14T05:41:08.748Z,49.78
2018-07-14T05:43:38.091Z,50.19
2018-07-14T05:46:06.850Z,50.18
2018-07-14T05:48:35.839Z,49.09
2018-07-14T05:51:04.940Z,49.82
2018-07-14T05:53:34.183Z,49.06
2018-07-14T05:56:03.220Z,48.42
2018-07-14T05:58:32.410Z,49.52
2018-07-14T06:01:01.679Z,48.43
2018-07-14T06:03:30.520Z,49.97
2018-07-14T06:05:59.498Z,48.42
2018-07-14T06:08:28.732Z,48.43
2018-07-14T06:10:57.722Z,48.12
2018-07-14T06:13:26.795Z,47.61
2018-07-14T06:15:56.127Z,48.15
2018-07-14T06:18:25.178Z,48.62
2018-07-14T06:20:54.115Z,47.60
2018-07-14T06:23:23.350Z,48.21
2018-07-14T06:25:52.444Z,47.58
2018-07-14T06:28:21.518Z,48.61
2018-07-14T06:30:50.490Z,46.92
2018-07-14T06:33:19.721Z,48.25
2018-07-14T06:35:48.850Z,48.25
2018-07-14T06:38:17.757Z,45.95
2018-07-14T06:40:46.734Z,46.72
2018-07-14T06:43:15.710Z,47.40
2018-07-14T06:45:44.883Z,46.85
2018-07-14T06:48:13.911Z,46.94
2018-07-14T06:50:43.040Z,47.67
2018-07-14T06:53:11.854Z,47.80
2018-07-14T06:55:40.791Z,45.78
2018-07-14T06:58:09.969Z,45.89
2018-07-14T07:00:39.275Z,45.55
2018-07-14T07:03:08.562Z,46.37
2018-07-14T07:05:37.661Z,45.87
2018-07-14T07:08:06.860Z,45.49
2018-07-14T07:10:36.739Z,44.96
2018-07-14T07:13:05.561Z,45.59
2018-07-14T07:15:34.696Z,44.72
2018-07-14T07:18:03.718Z,45.09
2018-07-14T07:20:32.988Z,43.55
2018-07-14T07:23:02.189Z,42.86
2018-07-14T07:25:31.108Z,44.66
2018-07-14T07:28:00.200Z,43.90
2018-07-14T07:30:29.504Z,44.66
2018-07-14T07:32:58.592Z,44.30
2018-07-14T07:35:27.671Z,43.77
2018-07-14T07:37:57.063Z,44.97
2018-07-14T07:40:26.466Z,43.83
2018-07-14T07:42:56.025Z,44.46
2018-07-14T07:45:25.302Z,44.12
2018-07-14T07:47:54.118Z,43.36
2018-07-14T07:50:23.052Z,43.96
2018-07-14T07:52:52.116Z,43.25
2018-07-14T07:55:21.387Z,43.21
2018-07-14T07:57:50.592Z,42.35
2018-07-14T08:00:19.878Z,43.53
2018-07-14T08:02:49.118Z,42.85
2018-07-14T08:05:18.211Z,42.81
2018-07-14T08:07:47.200Z,42.93
2018-07-14T08:10:16.232Z,42.45
2018-07-14T08:12:45.343Z,41.99
2018-07-14T08:15:14.494Z,42.37
2018-07-14T08:17:43.792Z,42.05
2018-07-14T08:20:13.044Z,42.50
2018-07-14T08:22:42.116Z,43.64
2018-07-14T08:25:11.228Z,42.83
2018-07-14T08:27:40.419Z,41.67
2018-07-14T08:30:09.660Z,42.74
2018-07-14T08:32:38.790Z,41.70
2018-07-14T08:35:08.392Z,42.00
2018-07-14T08:37:38.776Z,41.56
2018-07-14T08:40:07.977Z,42.19
2018-07-14T08:42:36.803Z,41.36
2018-07-14T08:45:06.026Z,42.47
2018-07-14T08:47:34.957Z,42.07
2018-07-14T08:50:04.052Z,41.93
2018-07-14T08:52:32.914Z,42.71
2018-07-14T08:55:02.194Z,41.35
2018-07-14T08:57:30.983Z,40.65
2018-07-14T09:00:00.128Z,41.78
2018-07-14T09:02:29.326Z,41.60
2018-07-14T09:04:58.466Z,41.43
2018-07-14T09:07:27.633Z,41.24
2018-07-14T09:09:56.454Z,40.08
2018-07-14T09:12:25.479Z,40.72
2018-07-14T09:14:54.649Z,40.99
2018-07-14T09:17:23.697Z,40.46
2018-07-14T09:19:52.578Z,41.41
2018-07-14T09:22:21.841Z,40.23
2018-07-14T09:24:51.109Z,41.40
2018-07-14T09:27:20.350Z,40.78
2018-07-14T09:29:49.572Z,41.00
2018-07-14T09:32:18.700Z,40.72
2018-07-14T09:34:47.809Z,38.85
2018-07-14T09:37:16.620Z,40.40
2018-07-14T09:39:45.898Z,38.29
2018-07-14T09:42:14.730Z,37.68
2018-07-14T09:44:43.777Z,36.68
2018-07-14T09:47:13.024Z,36.51
2018-07-14T09:49:42.097Z,36.63
2018-07-14T09:52:11.309Z,33.65
2018-07-14T09:54:40.662Z,33.68
2018-07-14T09:57:09.873Z,32.76
2018-07-14T09:59:39.095Z,33.45
2018-07-14T10:02:08.790Z,34.24
2018-07-14T10:04:37.791Z,32.42
2018-07-14T10:07:06.980Z,30.39
2018-07-14T10:09:36.084Z,29.84
2018-07-14T10:12:05.332Z,28.35
2018-07-14T10:14:34.172Z,28.27
2018-07-14T10:17:03.187Z,30.06
2018-07-14T10:19:32.231Z,28.18
2018-07-14T10:22:01.554Z,26.50
2018-07-14T10:24:30.769Z,27.28
2018-07-14T10:26:59.611Z,29.66
2018-07-14T10:29:28.626Z,31.44
2018-07-14T10:31:57.795Z,28.51
2018-07-14T10:34:26.930Z,26.40
2018-07-14T10:36:56.013Z,25.63
2018-07-14T10:39:25.272Z,23.50
2018-07-14T10:41:54.263Z,22.07
2018-07-14T10:44:23.354Z,21.29
2018-07-14T10:46:52.240Z,20.35
2018-07-14T10:49:21.156Z,21.22
2018-07-14T10:51:50.370Z,21.32
2018-07-14T10:54:19.127Z,22.24
2018-07-14T10:56:48.457Z,23.24
2018-07-14T10:59:19.414Z,25.31
2018-07-14T11:01:48.512Z,26.43
2018-07-14T11:04:17.408Z,27.57
2018-07-14T11:06:47.585Z,25.91
2018-07-14T11:09:17.000Z,25.34
2018-07-14T11:11:46.470Z,23.59
2018-07-14T11:14:15.778Z,24.15
2018-07-14T11:16:44.971Z,24.59
2018-07-14T11:19:14.350Z,24.76
2018-07-14T11:21:43.389Z,24.48
2018-07-14T11:24:12.181Z,24.76
2018-07-14T11:26:41.282Z,24.46
2018-07-14T11:29:10.301Z,25.16
2018-07-14T11:31:39.576Z,26.23
2018-07-14T11:34:08.756Z,27.07
2018-07-14T11:36:37.929Z,26.24
2018-07-14T11:39:07.198Z,25.44
2018-07-14T11:41:36.108Z,25.61
2018-07-14T11:44:05.588Z,24.66
2018-07-14T11:46:34.459Z,25.18
2018-07-14T11:49:03.738Z,24.25
2018-07-14T11:51:32.924Z,22.48
2018-07-14T11:54:02.048Z,22.10
2018-07-14T11:56:31.287Z,22.96
2018-07-14T11:59:00.320Z,24.45
2018-07-14T12:01:29.691Z,25.02
2018-07-14T12:03:58.625Z,24.43
2018-07-14T12:06:27.496Z,24.78
2018-07-14T12:08:56.508Z,24.80
2018-07-14T12:11:25.390Z,22.94
2018-07-14T12:13:54.531Z,22.55
2018-07-14T12:16:23.691Z,21.76
2018-07-14T12:18:52.571Z,22.16
2018-07-14T12:21:21.810Z,21.96
2018-07-14T12:23:51.024Z,21.87
2018-07-14T12:26:20.203Z,21.12
2018-07-14T12:28:49.762Z,20.57
2018-07-14T12:31:19.134Z,21.62
2018-07-14T12:33:48.358Z,23.11
2018-07-14T12:36:18.333Z,23.58
2018-07-14T12:38:47.318Z,22.95
2018-07-14T12:41:16.481Z,21.72
2018-07-14T12:43:45.647Z,20.99
2018-07-14T12:46:14.499Z,23.13
2018-07-14T12:48:43.635Z,22.70
2018-07-14T12:51:12.588Z,21.62
2018-07-14T12:53:41.433Z,19.93
2018-07-14T12:56:10.589Z,20.68
2018-07-14T12:58:39.703Z,19.89
2018-07-14T13:01:09.010Z,19.97
2018-07-14T13:03:38.271Z,20.27
2018-07-14T13:06:07.726Z,20.97
2018-07-14T13:08:36.915Z,20.57
2018-07-14T13:11:05.976Z,20.80
2018-07-14T13:13:35.351Z,20.69
2018-07-14T13:16:04.657Z,21.59
2018-07-14T13:18:33.467Z,19.98
2018-07-14T13:21:02.586Z,18.40
2018-07-14T13:23:31.409Z,19.10
2018-07-14T13:26:00.531Z,20.13
2018-07-14T13:28:29.667Z,21.10
2018-07-14T13:30:58.373Z,21.93
2018-07-14T13:33:27.222Z,21.68
2018-07-14T13:35:56.150Z,22.13
2018-07-14T13:38:25.313Z,20.92
2018-07-14T13:40:54.299Z,22.17
2018-07-14T13:43:23.039Z,21.90
2018-07-14T13:45:51.903Z,21.18
2018-07-14T13:48:21.018Z,21.00
2018-07-14T13:50:50.141Z,20.71
2018-07-14T13:53:19.174Z,20.58
2018-07-14T13:55:48.451Z,20.56
2018-07-14T13:58:17.336Z,21.75
2018-07-14T14:00:46.164Z,21.65
2018-07-14T14:03:15.284Z,21.61
2018-07-14T14:05:44.649Z,20.12
2018-07-14T14:08:13.838Z,21.18
2018-07-14T14:10:43.142Z,22.86
2018-07-14T14:13:12.204Z,24.15
2018-07-14T14:15:41.330Z,23.77
2018-07-14T14:18:10.446Z,25.66
2018-07-14T14:20:39.770Z,25.32
2018-07-14T14:23:08.980Z,26.16
2018-07-14T14:25:38.206Z,24.94
2018-07-14T14:28:07.708Z,25.71
2018-07-14T14:30:37.175Z,26.13
2018-07-14T14:33:06.313Z,26.87
2018-07-14T14:35:35.038Z,27.36
2018-07-14T14:38:04.358Z,27.60
2018-07-14T14:40:33.211Z,27.01
2018-07-14T14:43:02.287Z,27.53
2018-07-14T14:45:31.352Z,27.98
2018-07-14T14:48:00.599Z,28.29
2018-07-14T14:50:29.722Z,30.00
2018-07-14T14:52:58.992Z,30.42
2018-07-14T14:55:34.366Z,29.73
2018-07-14T14:58:03.826Z,29.78
2018-07-14T15:00:33.070Z,31.04
2018-07-14T15:03:02.198Z,29.99
2018-07-14T15:05:31.403Z,29.94
2018-07-14T15:08:00.241Z,30.71
2018-07-14T15:10:29.440Z,31.27
2018-07-14T15:12:58.652Z,31.11
2018-07-14T15:15:27.870Z,32.16
2018-07-14T15:17:56.865Z,31.58
2018-07-14T15:20:26.016Z,31.71
2018-07-14T15:22:55.262Z,32.96
2018-07-14T15:25:24.030Z,32.84
2018-07-14T15:27:52.902Z,32.87
2018-07-14T15:30:22.266Z,33.30
2018-07-14T15:32:51.559Z,32.80
2018-07-14T15:35:20.594Z,32.26
2018-07-14T15:37:49.898Z,32.85
2018-07-14T15:40:19.169Z,32.67
2018-07-14T15:42:48.362Z,33.43
2018-07-14T15:45:17.205Z,34.24
2018-07-14T15:47:46.342Z,35.04
2018-07-14T15:50:15.571Z,35.17
2018-07-14T15:52:44.738Z,34.19
2018-07-14T15:55:14.096Z,35.37
2018-07-14T15:57:43.238Z,35.45
2018-07-14T16:00:12.516Z,35.21
2018-07-14T16:02:41.330Z,35.19
2018-07-14T16:05:10.668Z,34.87
2018-07-14T16:07:39.974Z,34.92
2018-07-14T16:10:09.212Z,34.48
2018-07-14T16:12:38.409Z,35.44
2018-07-14T16:15:07.311Z,34.04
2018-07-14T16:17:36.397Z,34.39
2018-07-14T16:20:05.750Z,34.30
2018-07-14T16:22:34.877Z,35.57
2018-07-14T16:25:04.101Z,36.06
2018-07-14T16:27:33.358Z,36.32
2018-07-14T16:30:02.542Z,38.12
2018-07-14T16:32:31.304Z,37.23
2018-07-14T16:35:00.627Z,36.70
2018-07-14T16:37:29.878Z,36.65
2018-07-14T16:39:58.981Z,37.16
2018-07-14T16:42:28.167Z,36.99
2018-07-14T16:44:57.010Z,38.82
2018-07-14T16:47:26.245Z,38.81
2018-07-14T16:49:55.744Z,40.74
2018-07-14T16:52:24.920Z,40.17
2018-07-14T16:54:53.994Z,40.26
2018-07-14T16:57:22.914Z,40.66
2018-07-14T16:59:52.033Z,40.62
2018-07-14T17:02:21.029Z,40.07
2018-07-14T17:04:50.076Z,40.35
2018-07-14T17:07:19.111Z,39.64
2018-07-14T17:09:48.290Z,39.57
2018-07-14T17:12:17.133Z,39.92
2018-07-14T17:14:45.882Z,41.20
2018-07-14T17:17:15.103Z,40.71
2018-07-14T17:19:44.223Z,41.52
2018-07-14T17:22:13.266Z,42.14
2018-07-14T17:24:42.542Z,41.72
2018-07-14T17:27:11.670Z,40.62
2018-07-14T17:29:40.802Z,41.11
2018-07-14T17:32:09.913Z,41.10
2018-07-14T17:34:38.954Z,40.30
2018-07-14T17:37:08.203Z,41.20
2018-07-14T17:39:37.422Z,41.42
2018-07-14T17:42:06.562Z,41.11
2018-07-14T17:44:35.820Z,41.64
2018-07-14T17:47:04.711Z,41.75
2018-07-14T17:49:33.862Z,41.89
2018-07-14T17:52:02.799Z,41.78
2018-07-14T17:54:32.150Z,42.20
2018-07-14T17:57:01.520Z,41.49
2018-07-14T17:59:30.694Z,42.02
2018-07-14T18:02:00.035Z,41.27
2018-07-14T18:04:29.079Z,41.70
2018-07-14T18:06:58.003Z,41.71
2018-07-14T18:09:27.265Z,42.59
2018-07-14T18:11:55.966Z,43.03
2018-07-14T18:14:24.759Z,44.47
2018-07-14T18:16:53.764Z,43.88
2018-07-14T18:19:22.902Z,44.27
2018-07-14T18:21:52.022Z,44.57
2018-07-14T18:24:21.123Z,43.98
2018-07-14T18:26:50.452Z,45.15
2018-07-14T18:29:19.609Z,45.61
2018-07-14T18:31:48.927Z,45.17
2018-07-14T18:34:17.778Z,46.12
2018-07-14T18:36:46.872Z,45.62
2018-07-14T18:39:16.327Z,45.99
2018-07-14T18:41:45.452Z,47.01
2018-07-14T18:44:14.712Z,46.44
2018-07-14T18:46:44.125Z,47.44
2018-07-14T18:49:13.398Z,47.24
2018-07-14T18:51:42.710Z,47.11
2018-07-14T18:54:11.915Z,47.66
2018-07-14T18:56:40.782Z,47.57
2018-07-14T18:59:10.925Z,47.78
2018-07-14T19:01:40.123Z,47.71
2018-07-14T19:04:09.449Z,47.82
2018-07-14T19:06:39.024Z,46.78
2018-07-14T19:09:07.923Z,47.39
2018-07-14T19:11:37.040Z,47.04
2018-07-14T19:14:06.018Z,47.47
2018-07-14T19:16:34.814Z,47.82
2018-07-14T19:19:04.002Z,47.12
2018-07-14T19:21:33.035Z,47.23
2018-07-14T19:24:02.339Z,48.04
2018-07-14T19:26:31.298Z,48.10
2018-07-14T19:29:00.484Z,47.53
2018-07-14T19:31:29.753Z,48.30
2018-07-14T19:33:58.641Z,47.67
2018-07-14T19:36:27.811Z,47.74
2018-07-14T19:38:57.068Z,49.10
2018-07-14T19:41:26.255Z,47.76
2018-07-14T19:43:55.423Z,48.76
2018-07-14T19:46:24.620Z,47.96
2018-07-14T19:48:53.439Z,47.91
2018-07-14T19:51:22.381Z,48.73
2018-07-14T19:53:51.329Z,49.03
2018-07-14T19:56:20.630Z,48.40
2018-07-14T19:58:49.792Z,48.52
2018-07-14T20:01:18.766Z,47.93
2018-07-14T20:03:48.220Z,47.04
2018-07-14T20:06:17.301Z,47.51
2018-07-14T20:08:46.585Z,47.46
2018-07-14T20:11:15.539Z,48.24
2018-07-14T20:13:44.576Z,47.73
2018-07-14T20:16:13.539Z,47.43
2018-07-14T20:18:42.710Z,48.00
2018-07-14T20:21:11.878Z,47.23
2018-07-14T20:23:41.034Z,47.37
2018-07-14T20:26:09.851Z,48.28
2018-07-14T20:28:38.950Z,47.94
2018-07-14T20:31:08.118Z,48.20
2018-07-14T20:33:37.331Z,48.18
2018-07-14T20:36:06.658Z,48.40
2018-07-14T20:38:35.710Z,49.41
2018-07-14T20:41:05.030Z,48.67
2018-07-14T20:43:34.140Z,49.56
2018-07-14T20:46:02.990Z,50.32
2018-07-14T20:48:31.778Z,50.51
2018-07-14T20:51:01.003Z,51.02
2018-07-14T20:53:30.092Z,50.52
2018-07-14T20:55:58.955Z,51.00
2018-07-14T20:58:28.170Z,49.94
2018-07-14T21:00:57.190Z,49.65
2018-07-14T21:03:26.481Z,49.99
2018-07-14T21:05:56.485Z,49.95
2018-07-14T21:08:25.776Z,49.36
2018-07-14T21:10:54.858Z,49.44
2018-07-14T21:13:24.151Z,48.64
2018-07-14T21:15:53.103Z,49.28
2018-07-14T21:18:22.398Z,48.74
2018-07-14T21:20:51.449Z,48.66
2018-07-14T21:23:20.875Z,48.92
2018-07-14T21:25:50.128Z,49.23
2018-07-14T21:28:19.358Z,48.78
2018-07-14T21:30:48.502Z,48.50
2018-07-14T21:33:17.703Z,48.42
2018-07-14T21:35:47.024Z,48.50
2018-07-14T21:38:16.085Z,48.77
2018-07-14T21:40:45.096Z,48.64
2018-07-14T21:43:14.082Z,48.62
2018-07-14T21:45:43.298Z,48.18
2018-07-14T21:48:12.166Z,48.24
2018-07-14T21:50:41.039Z,47.74
2018-07-14T21:53:09.681Z,47.97
2018-07-14T21:55:38.909Z,47.73
2018-07-14T21:58:08.248Z,47.77
2018-07-14T22:00:42.366Z,48.53
2018-07-14T22:03:11.430Z,48.41
2018-07-14T22:05:40.659Z,48.61
2018-07-14T22:08:09.703Z,47.92
2018-07-14T22:10:38.944Z,48.71
2018-07-14T22:13:08.197Z,48.22
2018-07-14T22:15:37.476Z,47.97
2018-07-14T22:18:06.720Z,48.04
2018-07-14T22:20:36.002Z,48.47
2018-07-14T22:23:05.348Z,49.40
2018-07-14T22:25:34.608Z,48.92
2018-07-14T22:28:03.810Z,49.17
2018-07-14T22:30:33.105Z,50.23
2018-07-14T22:33:02.331Z,50.49
2018-07-14T22:35:31.370Z,49.71
2018-07-14T22:38:00.358Z,50.28
2018-07-14T22:40:29.635Z,50.91
2018-07-14T22:42:58.875Z,50.53
2018-07-14T22:45:28.180Z,51.25
2018-07-14T22:47:57.575Z,51.01
2018-07-14T22:50:26.806Z,51.32
2018-07-14T22:52:56.139Z,51.18
2018-07-14T22:55:25.286Z,51.37
2018-07-14T22:57:54.288Z,51.48
2018-07-14T23:00:23.406Z,51.46
2018-07-14T23:02:52.560Z,51.38
2018-07-14T23:05:21.804Z,50.96
2018-07-14T23:07:50.751Z,50.72
2018-07-14T23:10:19.867Z,51.08
2018-07-14T23:12:48.799Z,50.84
2018-07-14T23:15:18.113Z,50.79
2018-07-14T23:17:47.311Z,51.05
2018-07-14T23:20:16.533Z,50.92
2018-07-14T23:22:45.702Z,51.67
2018-07-14T23:25:14.943Z,51.32
2018-07-14T23:27:44.092Z,51.04
2018-07-14T23:30:13.112Z,51.26
2018-07-14T23:32:42.290Z,51.21
2018-07-14T23:35:11.258Z,51.25
2018-07-14T23:37:40.492Z,51.12
2018-07-14T23:40:09.679Z,51.45
2018-07-14T23:42:38.866Z,51.38
2018-07-14T23:45:08.044Z,51.08
2018-07-14T23:47:36.981Z,51.97
2018-07-14T23:50:06.084Z,51.49
2018-07-14T23:52:35.289Z,51.05
2018-07-14T23:55:04.348Z,50.98
2018-07-14T23:57:33.442Z,51.54
